Time;durP1;ratioP1;P1;durP2;ratioP2;P2;SDS_P1;SDS_P2;PMS_P1;PMS_P2;Temp;Humidity;BMP_temperature;BMP_pressure;BME280_temperature;BME280_humidity;BME280_pressure;Samples;Min_cycle;Max_cycle;Signal;HPM_P1;HPM_P2
2022/05/25 00:02:24;;;;;;;4.70;4.30;;;;;;;;;;5049201;28;21064;-81
2022/05/25 00:04:51;;;;;;;3.70;3.40;;;;;;;;;;5048375;28;20425;-81
2022/05/25 00:07:17;;;;;;;5.13;4.43;;;;;;;;;;5048990;28;20416;-81
2022/05/25 00:09:44;;;;;;;4.80;4.40;;;;;;;;;;5049868;28;20429;-81
2022/05/25 00:12:10;;;;;;;4.60;4.20;;;;;;;;;;5053345;28;20835;-81
2022/05/25 00:14:38;;;;;;;5.00;4.50;;;;;;;;;;5052266;28;20452;-81
2022/05/25 00:17:04;;;;;;;5.40;4.90;;;;;;;;;;5047945;28;20940;-81
2022/05/25 00:22:23;;;;;;;5.53;4.97;;;;;;;;;;4997116;28;20797;-81
2022/05/25 00:24:49;;;;;;;5.88;5.03;;;;;;;;;;5047914;28;20429;-81
2022/05/25 00:27:17;;;;;;;6.50;5.10;;;;;;;;;;5050976;28;20986;-81
2022/05/25 00:29:45;;;;;;;10.68;5.30;;;;;;;;;;5051766;28;20516;-81
2022/05/25 00:32:11;;;;;;;6.25;5.65;;;;;;;;;;5049986;28;20465;-81
2022/05/25 00:34:37;;;;;;;5.40;4.90;;;;;;;;;;5053302;28;20437;-81
2022/05/25 00:37:04;;;;;;;7.37;5.60;;;;;;;;;;5052618;28;20448;-81
2022/05/25 00:39:30;;;;;;;5.43;4.93;;;;;;;;;;5043929;28;20434;-81
2022/05/25 00:41:56;;;;;;;6.22;5.28;;;;;;;;;;5050834;28;20486;-81
2022/05/25 00:44:23;;;;;;;9.45;6.50;;;;;;;;;;5054559;28;20463;-82
2022/05/25 00:46:51;;;;;;;8.48;6.03;;;;;;;;;;5054238;28;20432;-81
2022/05/25 00:49:19;;;;;;;7.32;6.10;;;;;;;;;;5053187;28;20433;-82
2022/05/25 00:51:49;;;;;;;6.93;6.22;;;;;;;;;;5051827;28;20435;-81
2022/05/25 00:54:18;;;;;;;6.40;5.80;;;;;;;;;;5053502;28;20450;-82
2022/05/25 00:56:46;;;;;;;6.32;5.00;;;;;;;;;;5053500;28;20532;-79
2022/05/25 00:59:14;;;;;;;5.72;5.22;;;;;;;;;;5054517;28;20433;-81
2022/05/25 01:01:41;;;;;;;7.10;5.95;;;;;;;;;;5053655;28;20442;-81
2022/05/25 01:04:09;;;;;;;6.03;5.43;;;;;;;;;;5081389;22;20516;-88
2022/05/25 01:06:49;;;;;;;6.05;5.45;;;;;;;;;;5066392;28;20433;-86
2022/05/25 01:09:19;;;;;;;7.78;5.90;;;;;;;;;;5067208;28;20853;-85
2022/05/25 01:11:50;;;;;;;6.63;5.85;;;;;;;;;;5067875;28;20429;-86
2022/05/25 01:14:24;;;;;;;7.45;6.10;;;;;;;;;;5065308;28;20421;-86
2022/05/25 01:16:57;;;;;;;7.15;5.90;;;;;;;;;;5062005;28;20433;-86
2022/05/25 01:19:38;;;;;;;7.18;6.10;;;;;;;;;;5062292;28;20421;-85
2022/05/25 01:22:11;;;;;;;6.32;5.70;;;;;;;;;;5062812;28;20414;-85
2022/05/25 01:24:39;;;;;;;6.90;6.20;;;;;;;;;;5063036;28;20429;-86
2022/05/25 01:27:18;;;;;;;6.72;6.13;;;;;;;;;;5064086;28;20419;-86
2022/05/25 01:29:57;;;;;;;7.07;6.47;;;;;;;;;;5064653;28;20437;-86
2022/05/25 01:32:29;;;;;;;6.50;5.72;;;;;;;;;;5065532;28;20418;-86
2022/05/25 01:34:57;;;;;;;6.57;5.97;;;;;;;;;;5063328;28;20434;-86
2022/05/25 01:37:26;;;;;;;6.37;5.67;;;;;;;;;;5063562;28;20421;-85
2022/05/25 01:39:54;;;;;;;7.80;7.00;;;;;;;;;;5061444;28;20430;-87
2022/05/25 01:42:22;;;;;;;7.88;6.80;;;;;;;;;;5066423;28;20410;-87
2022/05/25 01:44:51;;;;;;;7.60;6.80;;;;;;;;;;5065254;28;20425;-86
2022/05/25 01:47:20;;;;;;;8.70;7.40;;;;;;;;;;5063510;28;20862;-85
2022/05/25 01:49:50;;;;;;;8.50;7.60;;;;;;;;;;5064684;28;20432;-86
2022/05/25 01:52:19;;;;;;;7.38;6.60;;;;;;;;;;5062317;28;20421;-87
2022/05/25 01:54:50;;;;;;;9.10;7.38;;;;;;;;;;5061745;28;20433;-86
2022/05/25 01:57:16;;;;;;;8.18;7.25;;;;;;;;;;5065880;28;20436;-86
2022/05/25 01:59:43;;;;;;;7.68;6.95;;;;;;;;;;5069920;28;20433;-86
2022/05/25 02:04:56;;;;;;;10.98;6.90;;;;;;;;;;5067878;28;20474;-86
2022/05/25 02:07:30;;;;;;;8.25;7.20;;;;;;;;;;5066616;28;20398;-86
2022/05/25 02:10:08;;;;;;;7.70;7.10;;;;;;;;;;5066106;28;20429;-87
2022/05/25 02:12:45;;;;;;;8.65;7.85;;;;;;;;;;5068755;28;20427;-86
2022/05/25 02:15:14;;;;;;;9.13;7.93;;;;;;;;;;5067931;28;20424;-86
2022/05/25 02:17:44;;;;;;;9.70;7.95;;;;;;;;;;5068033;28;20425;-86
2022/05/25 02:20:18;;;;;;;8.00;7.30;;;;;;;;;;5068815;28;20484;-86
2022/05/25 02:22:46;;;;;;;8.93;8.02;;;;;;;;;;5066098;28;20480;-85
2022/05/25 02:25:14;;;;;;;9.23;8.33;;;;;;;;;;5066475;28;20424;-86
2022/05/25 02:27:44;;;;;;;12.20;8.40;;;;;;;;;;5068597;28;20417;-86
2022/05/25 02:30:14;;;;;;;9.40;8.50;;;;;;;;;;5065828;28;20423;-87
2022/05/25 02:32:42;;;;;;;10.10;9.02;;;;;;;;;;5062319;28;20430;-85
2022/05/25 02:35:09;;;;;;;10.30;9.30;;;;;;;;;;5066178;28;20425;-86
2022/05/25 02:37:37;;;;;;;10.32;9.23;;;;;;;;;;5065224;28;20427;-86
2022/05/25 02:40:05;;;;;;;9.02;8.20;;;;;;;;;;5066425;28;20435;-86
2022/05/25 02:42:32;;;;;;;9.90;8.90;;;;;;;;;;5068709;28;20425;-87
2022/05/25 02:44:58;;;;;;;9.52;8.63;;;;;;;;;;5066471;28;20421;-86
2022/05/25 02:47:24;;;;;;;10.40;9.60;;;;;;;;;;5067842;28;20396;-87
2022/05/25 02:49:50;;;;;;;10.18;9.27;;;;;;;;;;5070018;28;21084;-86
2022/05/25 02:52:17;;;;;;;11.07;10.07;;;;;;;;;;5069240;28;20413;-87
2022/05/25 02:54:44;;;;;;;10.00;9.10;;;;;;;;;;5063677;28;21638;-86
2022/05/25 02:57:11;;;;;;;11.73;10.63;;;;;;;;;;5067748;28;20439;-86
2022/05/25 02:59:37;;;;;;;11.02;9.60;;;;;;;;;;5067477;28;20431;-86
2022/05/25 03:02:04;;;;;;;12.90;11.60;;;;;;;;;;5067254;28;20428;-86
2022/05/25 03:04:31;;;;;;;11.20;10.10;;;;;;;;;;5061824;28;20438;-86
2022/05/25 03:06:57;;;;;;;10.97;10.00;;;;;;;;;;5064237;28;20866;-86
2022/05/25 03:09:23;;;;;;;12.98;11.68;;;;;;;;;;5062937;28;20463;-85
2022/05/25 03:11:53;;;;;;;12.65;11.55;;;;;;;;;;5060158;28;20464;-86
2022/05/25 03:14:19;;;;;;;12.80;11.70;;;;;;;;;;5062885;28;20433;-86
2022/05/25 03:16:45;;;;;;;13.85;12.55;;;;;;;;;;5063227;28;20429;-86
2022/05/25 03:19:11;;;;;;;15.13;13.63;;;;;;;;;;5063196;28;20495;-85
2022/05/25 03:21:38;;;;;;;14.70;13.10;;;;;;;;;;5064540;28;20433;-86
2022/05/25 03:24:04;;;;;;;15.60;13.90;;;;;;;;;;5063414;28;20457;-86
2022/05/25 03:26:31;;;;;;;13.38;12.07;;;;;;;;;;5061749;28;20451;-85
2022/05/25 03:28:59;;;;;;;13.40;12.10;;;;;;;;;;5063662;28;20780;-86
2022/05/25 03:31:25;;;;;;;13.80;12.50;;;;;;;;;;5061691;28;20460;-85
2022/05/25 03:33:51;;;;;;;15.37;13.77;;;;;;;;;;5060837;28;20443;-85
2022/05/25 03:36:17;;;;;;;14.32;13.02;;;;;;;;;;5062978;28;20425;-86
2022/05/25 03:38:44;;;;;;;15.35;13.68;;;;;;;;;;5059901;28;20749;-84
2022/05/25 03:41:10;;;;;;;15.57;13.97;;;;;;;;;;5065202;28;20429;-86
2022/05/25 03:43:38;;;;;;;16.13;14.63;;;;;;;;;;5060001;28;21285;-85
2022/05/25 03:46:06;;;;;;;14.02;12.73;;;;;;;;;;5062664;28;20825;-87
2022/05/25 03:48:32;;;;;;;14.13;12.93;;;;;;;;;;5062310;28;20430;-85
2022/05/25 03:50:58;;;;;;;16.08;14.48;;;;;;;;;;5063543;28;20455;-86
2022/05/25 03:53:25;;;;;;;16.70;14.53;;;;;;;;;;5062613;28;20421;-86
2022/05/25 03:55:52;;;;;;;14.63;13.13;;;;;;;;;;5063033;28;20425;-86
2022/05/25 03:58:18;;;;;;;15.13;13.15;;;;;;;;;;5061292;28;20425;-86
2022/05/25 04:00:44;;;;;;;15.20;13.70;;;;;;;;;;5059437;28;20459;-84
2022/05/25 04:03:13;;;;;;;15.68;14.18;;;;;;;;;;5062957;28;20436;-85
2022/05/25 04:05:40;;;;;;;16.30;14.70;;;;;;;;;;5063843;28;20452;-86
2022/05/25 04:08:06;;;;;;;15.82;14.32;;;;;;;;;;5061621;28;20450;-86
2022/05/25 04:10:32;;;;;;;18.60;16.60;;;;;;;;;;5062383;28;20433;-85
2022/05/25 04:12:59;;;;;;;15.95;13.98;;;;;;;;;;5062864;28;20421;-85
2022/05/25 04:15:27;;;;;;;16.47;14.77;;;;;;;;;;5061286;28;20509;-85
2022/05/25 04:17:53;;;;;;;15.52;14.02;;;;;;;;;;5062767;28;20456;-86
2022/05/25 04:20:22;;;;;;;16.55;14.85;;;;;;;;;;5065344;28;20450;-85
2022/05/25 04:22:48;;;;;;;16.70;15.10;;;;;;;;;;5067872;28;20440;-86
2022/05/25 04:25:15;;;;;;;20.17;17.98;;;;;;;;;;5065640;28;20979;-86
2022/05/25 04:27:43;;;;;;;20.27;18.13;;;;;;;;;;5066333;28;20446;-86
2022/05/25 04:30:11;;;;;;;20.77;18.73;;;;;;;;;;5062144;28;20429;-86
2022/05/25 04:32:37;;;;;;;19.35;17.45;;;;;;;;;;5063722;28;20429;-87
2022/05/25 04:35:04;;;;;;;20.87;18.77;;;;;;;;;;5067915;28;20429;-86
2022/05/25 04:37:49;;;;;;;19.63;17.63;;;;;;;;;;5069242;28;20470;-85
2022/05/25 04:40:16;;;;;;;19.23;17.42;;;;;;;;;;5061956;28;20431;-85
2022/05/25 04:42:43;;;;;;;19.65;17.63;;;;;;;;;;5067320;28;20425;-85
2022/05/25 04:45:10;;;;;;;20.00;18.00;;;;;;;;;;5065201;28;20436;-86
2022/05/25 04:47:37;;;;;;;20.50;18.50;;;;;;;;;;5067462;28;20409;-87
2022/05/25 04:50:06;;;;;;;21.95;19.75;;;;;;;;;;5068630;28;20444;-85
2022/05/25 04:52:34;;;;;;;20.80;18.70;;;;;;;;;;5063981;28;20472;-86
2022/05/25 04:55:00;;;;;;;22.00;19.90;;;;;;;;;;5063838;28;20429;-86
2022/05/25 04:57:27;;;;;;;20.30;18.30;;;;;;;;;;5065464;28;20413;-86
2022/05/25 04:59:55;;;;;;;20.77;18.67;;;;;;;;;;5065974;28;20448;-85
2022/05/25 05:02:22;;;;;;;20.93;18.67;;;;;;;;;;5063690;28;20429;-85
2022/05/25 05:04:48;;;;;;;21.67;19.58;;;;;;;;;;5065058;28;20409;-86
2022/05/25 05:07:15;;;;;;;20.50;18.30;;;;;;;;;;5064585;28;20415;-86
2022/05/25 05:09:44;;;;;;;21.17;19.08;;;;;;;;;;5064552;28;20435;-86
2022/05/25 05:12:10;;;;;;;21.90;19.60;;;;;;;;;;5070233;28;20490;-86
2022/05/25 05:14:37;;;;;;;21.23;19.02;;;;;;;;;;5066073;28;20460;-86
2022/05/25 05:17:05;;;;;;;19.70;17.70;;;;;;;;;;5066013;28;22139;-85
2022/05/25 05:19:31;;;;;;;21.73;19.52;;;;;;;;;;5065097;28;20437;-84
2022/05/25 05:21:58;;;;;;;21.70;19.60;;;;;;;;;;5063356;28;20421;-85
2022/05/25 05:24:24;;;;;;;22.20;19.95;;;;;;;;;;5061590;28;20446;-84
2022/05/25 05:26:52;;;;;;;21.03;18.93;;;;;;;;;;5059333;28;20421;-84
2022/05/25 05:29:18;;;;;;;20.67;18.58;;;;;;;;;;5056103;28;20433;-84
2022/05/25 05:31:45;;;;;;;20.17;18.17;;;;;;;;;;5055955;28;20421;-85
2022/05/25 05:34:11;;;;;;;19.38;17.50;;;;;;;;;;5064037;28;20459;-84
2022/05/25 05:36:40;;;;;;;20.10;18.05;;;;;;;;;;5060052;28;20425;-85
2022/05/25 05:39:08;;;;;;;18.52;16.75;;;;;;;;;;5061431;28;20415;-84
2022/05/25 05:41:36;;;;;;;19.58;17.67;;;;;;;;;;5066589;28;20420;-84
2022/05/25 05:44:04;;;;;;;18.65;16.70;;;;;;;;;;5060694;28;20425;-85
2022/05/25 05:46:30;;;;;;;18.60;16.70;;;;;;;;;;5066300;28;20440;-84
2022/05/25 05:48:57;;;;;;;19.10;17.20;;;;;;;;;;5059325;28;20452;-85
2022/05/25 05:51:23;;;;;;;17.92;16.02;;;;;;;;;;5065384;28;20490;-85
2022/05/25 05:53:50;;;;;;;16.90;15.20;;;;;;;;;;5064301;28;20420;-85
2022/05/25 05:56:17;;;;;;;17.83;16.02;;;;;;;;;;5070188;28;20429;-86
2022/05/25 05:58:43;;;;;;;17.15;15.45;;;;;;;;;;5064889;28;20417;-84
2022/05/25 06:01:11;;;;;;;15.90;14.40;;;;;;;;;;5067583;28;20459;-84
2022/05/25 06:03:38;;;;;;;16.90;15.20;;;;;;;;;;5069090;28;20483;-86
2022/05/25 06:06:04;;;;;;;15.85;14.25;;;;;;;;;;5067946;28;20450;-85
2022/05/25 06:08:30;;;;;;;17.08;15.27;;;;;;;;;;5066473;28;20430;-87
2022/05/25 06:10:57;;;;;;;15.80;14.40;;;;;;;;;;5067176;28;20409;-85
2022/05/25 06:13:23;;;;;;;16.73;15.13;;;;;;;;;;5068461;28;20444;-86
2022/05/25 06:21:19;;;;;;;16.13;14.48;;;;;;;;;;5063721;28;20423;-85
2022/05/25 06:23:46;;;;;;;15.30;13.70;;;;;;;;;;5063801;28;20459;-85
2022/05/25 06:26:14;;;;;;;14.20;12.80;;;;;;;;;;5066923;28;20421;-86
2022/05/25 06:28:40;;;;;;;14.68;13.27;;;;;;;;;;5066707;28;20433;-86
2022/05/25 06:31:07;;;;;;;17.43;13.63;;;;;;;;;;5067377;28;20418;-86
2022/05/25 06:33:33;;;;;;;15.90;13.55;;;;;;;;;;5068132;28;20409;-86
2022/05/25 06:36:12;;;;;;;16.05;14.35;;;;;;;;;;5068190;28;20426;-86
2022/05/25 06:38:38;;;;;;;14.30;12.85;;;;;;;;;;5064914;28;20429;-86
2022/05/25 06:41:05;;;;;;;14.02;12.63;;;;;;;;;;5068587;28;20446;-85
2022/05/25 06:43:32;;;;;;;15.23;13.27;;;;;;;;;;5064681;28;20417;-84
2022/05/25 06:45:58;;;;;;;16.77;13.73;;;;;;;;;;5066194;28;20477;-86
2022/05/25 06:48:24;;;;;;;14.45;11.60;;;;;;;;;;5066228;28;20932;-85
2022/05/25 06:50:51;;;;;;;16.45;13.55;;;;;;;;;;5066372;28;20476;-85
2022/05/25 06:53:18;;;;;;;12.75;10.80;;;;;;;;;;5066385;28;20415;-86
2022/05/25 06:55:44;;;;;;;12.85;11.40;;;;;;;;;;5062379;28;20871;-86
2022/05/25 06:58:11;;;;;;;10.35;9.35;;;;;;;;;;5064408;28;20413;-85
2022/05/25 07:00:37;;;;;;;11.35;10.15;;;;;;;;;;5067446;28;20401;-85
2022/05/25 07:03:04;;;;;;;11.93;9.87;;;;;;;;;;5088027;22;20401;-85
2022/05/25 07:05:30;;;;;;;9.75;8.68;;;;;;;;;;5031279;28;20483;-85
2022/05/25 07:07:56;;;;;;;9.70;8.70;;;;;;;;;;5031150;28;20415;-85
2022/05/25 07:10:24;;;;;;;9.57;8.47;;;;;;;;;;5032391;28;20465;-84
2022/05/25 07:12:50;;;;;;;7.45;6.50;;;;;;;;;;5032361;28;20419;-84
2022/05/25 07:15:17;;;;;;;8.37;7.50;;;;;;;;;;5036261;28;20460;-85
2022/05/25 07:17:43;;;;;;;7.90;6.15;;;;;;;;;;5032443;28;20479;-84
2022/05/25 07:20:10;;;;;;;6.60;5.75;;;;;;;;;;5029176;28;20440;-83
2022/05/25 07:22:36;;;;;;;8.23;6.10;;;;;;;;;;5030582;28;20421;-84
2022/05/25 07:25:02;;;;;;;6.70;5.65;;;;;;;;;;5027902;28;20481;-83
2022/05/25 07:27:30;;;;;;;5.88;5.28;;;;;;;;;;5029428;28;20831;-85
2022/05/25 07:29:56;;;;;;;8.00;5.40;;;;;;;;;;5028831;28;20471;-83
2022/05/25 07:32:23;;;;;;;6.87;6.17;;;;;;;;;;5028242;28;20453;-83
2022/05/25 07:34:54;;;;;;;6.20;5.70;;;;;;;;;;5030941;28;20417;-85
2022/05/25 07:37:22;;;;;;;8.73;5.77;;;;;;;;;;5029768;28;20411;-83
2022/05/25 07:39:51;;;;;;;7.20;5.43;;;;;;;;;;5029187;28;20475;-84
2022/05/25 07:42:18;;;;;;;6.03;5.43;;;;;;;;;;5027175;28;20408;-83
2022/05/25 07:44:47;;;;;;;6.20;5.60;;;;;;;;;;5029169;28;20482;-83
2022/05/25 07:47:14;;;;;;;7.32;5.70;;;;;;;;;;5029199;28;20413;-83
2022/05/25 07:49:40;;;;;;;6.27;5.40;;;;;;;;;;5029997;28;20451;-84
2022/05/25 07:52:07;;;;;;;5.30;4.80;;;;;;;;;;5029003;28;20778;-85
2022/05/25 07:54:33;;;;;;;6.43;4.60;;;;;;;;;;5029146;28;20445;-84
2022/05/25 07:57:00;;;;;;;5.35;4.85;;;;;;;;;;5027049;28;20428;-84
2022/05/25 07:59:27;;;;;;;6.10;4.60;;;;;;;;;;5028367;28;20441;-83
2022/05/25 08:07:26;;;;;;;6.25;4.25;;;;;;;;;;5029106;28;20427;-84
2022/05/25 08:09:54;;;;;;;3.90;3.60;;;;;;;;;;5027853;28;20503;-84
2022/05/25 08:12:21;;;;;;;4.22;3.83;;;;;;;;;;5028847;28;20419;-84
2022/05/25 08:14:48;;;;;;;5.50;4.40;;;;;;;;;;5030329;28;20440;-85
2022/05/25 08:17:15;;;;;;;6.95;4.30;;;;;;;;;;5027368;28;20419;-83
2022/05/25 08:19:41;;;;;;;3.70;3.30;;;;;;;;;;5029121;28;20417;-83
2022/05/25 08:22:09;;;;;;;4.00;3.63;;;;;;;;;;5031738;28;21022;-83
2022/05/25 08:24:35;;;;;;;4.72;3.38;;;;;;;;;;5031953;28;20913;-84
2022/05/25 08:27:02;;;;;;;2.92;2.63;;;;;;;;;;5030919;28;20444;-85
2022/05/25 08:29:28;;;;;;;4.70;3.40;;;;;;;;;;5028550;28;20449;-83
2022/05/25 08:31:55;;;;;;;4.87;3.60;;;;;;;;;;5031017;28;20415;-84
2022/05/25 08:34:23;;;;;;;4.25;3.33;;;;;;;;;;5031568;28;20422;-84
2022/05/25 08:36:50;;;;;;;4.35;3.95;;;;;;;;;;5028023;28;20470;-84
2022/05/25 08:39:16;;;;;;;3.92;3.00;;;;;;;;;;5030580;28;20410;-83
2022/05/25 08:41:44;;;;;;;3.95;3.40;;;;;;;;;;5029432;28;20419;-84
2022/05/25 08:44:11;;;;;;;3.30;3.07;;;;;;;;;;5030655;28;20452;-83
2022/05/25 08:46:38;;;;;;;5.60;3.30;;;;;;;;;;5031345;28;20482;-86
2022/05/25 08:49:10;;;;;;;5.03;3.27;;;;;;;;;;5029379;28;20821;-84
2022/05/25 08:51:43;;;;;;;3.40;3.10;;;;;;;;;;5028782;28;20905;-83
2022/05/25 08:54:10;;;;;;;4.00;3.20;;;;;;;;;;5029685;28;20456;-84
2022/05/25 08:56:37;;;;;;;3.67;3.20;;;;;;;;;;5030027;28;20463;-83
2022/05/25 08:59:04;;;;;;;2.75;2.45;;;;;;;;;;5032043;28;20415;-84
2022/05/25 09:01:33;;;;;;;2.85;2.60;;;;;;;;;;5029009;28;20449;-84
2022/05/25 09:04:03;;;;;;;3.47;2.70;;;;;;;;;;5028277;28;20515;-83
2022/05/25 09:06:34;;;;;;;4.07;2.90;;;;;;;;;;5038782;28;20461;-83
2022/05/25 09:09:04;;;;;;;2.92;2.65;;;;;;;;;;5033089;28;20427;-83
2022/05/25 09:11:34;;;;;;;3.58;2.50;;;;;;;;;;5034610;28;20478;-84
2022/05/25 09:14:01;;;;;;;2.75;2.30;;;;;;;;;;5035890;28;20432;-83
2022/05/25 09:16:29;;;;;;;3.30;2.30;;;;;;;;;;5034450;28;20437;-83
2022/05/25 09:19:00;;;;;;;2.80;2.40;;;;;;;;;;5033006;28;20426;-84
2022/05/25 09:21:29;;;;;;;2.83;2.20;;;;;;;;;;5035888;28;20420;-85
2022/05/25 09:23:57;;;;;;;2.10;1.90;;;;;;;;;;5033398;28;20431;-85
2022/05/25 09:26:26;;;;;;;2.97;2.00;;;;;;;;;;5035243;28;20424;-83
2022/05/25 09:28:55;;;;;;;3.42;2.20;;;;;;;;;;5031877;28;20443;-84
2022/05/25 09:31:24;;;;;;;4.60;2.38;;;;;;;;;;5033026;28;20477;-83
2022/05/25 09:33:51;;;;;;;2.85;2.30;;;;;;;;;;5033695;28;20423;-84
2022/05/25 09:36:20;;;;;;;2.25;2.05;;;;;;;;;;5031993;28;20447;-82
2022/05/25 09:38:53;;;;;;;2.30;1.90;;;;;;;;;;5033809;28;20431;-83
2022/05/25 09:41:20;;;;;;;2.50;1.90;;;;;;;;;;5036623;28;20431;-84
2022/05/25 09:43:52;;;;;;;1.70;1.60;;;;;;;;;;5033113;28;20451;-85
2022/05/25 09:46:21;;;;;;;3.88;1.90;;;;;;;;;;5032950;28;20415;-85
2022/05/25 09:48:49;;;;;;;2.50;1.60;;;;;;;;;;5035135;28;20415;-84
2022/05/25 09:51:20;;;;;;;1.80;1.65;;;;;;;;;;5034852;28;20430;-83
2022/05/25 09:53:50;;;;;;;2.47;1.40;;;;;;;;;;5032493;28;20437;-85
2022/05/25 09:56:20;;;;;;;4.43;1.70;;;;;;;;;;5032875;28;20435;-83
2022/05/25 09:58:50;;;;;;;2.20;1.40;;;;;;;;;;5034001;28;20428;-83
2022/05/25 10:01:20;;;;;;;2.40;1.38;;;;;;;;;;5034816;28;20540;-83
2022/05/25 10:03:47;;;;;;;2.10;1.60;;;;;;;;;;5033414;28;20448;-84
2022/05/25 10:06:19;;;;;;;4.93;2.00;;;;;;;;;;5036700;28;20419;-85
2022/05/25 10:08:46;;;;;;;2.63;1.85;;;;;;;;;;5036070;28;20417;-83
2022/05/25 10:11:27;;;;;;;2.13;1.88;;;;;;;;;;5031422;28;20915;-84
2022/05/25 10:13:56;;;;;;;2.20;1.70;;;;;;;;;;5034683;28;20796;-84
2022/05/25 10:16:24;;;;;;;1.80;1.70;;;;;;;;;;5033228;28;20508;-83
2022/05/25 10:18:51;;;;;;;1.90;1.10;;;;;;;;;;5033887;28;20926;-84
2022/05/25 10:21:24;;;;;;;1.80;1.30;;;;;;;;;;5032607;28;20415;-83
2022/05/25 10:23:51;;;;;;;2.70;1.55;;;;;;;;;;5032250;28;20440;-84
2022/05/25 10:26:19;;;;;;;2.60;1.77;;;;;;;;;;5033215;28;20426;-83
2022/05/25 10:28:47;;;;;;;3.10;1.42;;;;;;;;;;5032154;28;20547;-83
2022/05/25 10:37:13;;;;;;;2.72;1.67;;;;;;;;;;5032763;28;20410;-84
2022/05/25 10:39:41;;;;;;;2.95;1.95;;;;;;;;;;5031306;28;20520;-83
2022/05/25 10:42:14;;;;;;;4.55;3.28;;;;;;;;;;5034033;28;20418;-84
2022/05/25 10:44:44;;;;;;;2.25;1.88;;;;;;;;;;5032772;28;20545;-83
2022/05/25 10:47:16;;;;;;;2.97;1.90;;;;;;;;;;5030058;28;20417;-85
2022/05/25 10:49:42;;;;;;;2.55;1.65;;;;;;;;;;5034249;28;20433;-85
2022/05/25 10:52:12;;;;;;;2.60;1.60;;;;;;;;;;5033078;28;20407;-85
2022/05/25 10:54:47;;;;;;;3.13;2.00;;;;;;;;;;5030322;28;20464;-84
2022/05/25 10:57:23;;;;;;;3.73;2.10;;;;;;;;;;5030432;28;20434;-85
2022/05/25 10:59:56;;;;;;;3.05;2.45;;;;;;;;;;5032702;28;20434;-85
2022/05/25 11:02:33;;;;;;;3.38;1.70;;;;;;;;;;5034308;28;20431;-84
2022/05/25 11:05:17;;;;;;;4.45;1.52;;;;;;;;;;5032132;28;20415;-86
2022/05/25 11:07:43;;;;;;;2.22;1.50;;;;;;;;;;5035880;28;20420;-81
2022/05/25 11:10:16;;;;;;;4.60;1.80;;;;;;;;;;5032247;28;20457;-85
2022/05/25 11:12:48;;;;;;;3.20;2.10;;;;;;;;;;5032140;28;20416;-84
2022/05/25 11:15:18;;;;;;;2.00;1.63;;;;;;;;;;5030804;28;20482;-83
2022/05/25 11:17:57;;;;;;;2.47;1.60;;;;;;;;;;5029607;28;20417;-84
2022/05/25 11:20:25;;;;;;;1.98;1.88;;;;;;;;;;5033082;28;20427;-83
2022/05/25 11:23:01;;;;;;;2.53;2.30;;;;;;;;;;5037161;28;20419;-83
2022/05/25 11:25:37;;;;;;;3.70;2.70;;;;;;;;;;5033939;28;20459;-85
2022/05/25 11:28:16;;;;;;;3.50;2.38;;;;;;;;;;5030726;28;20426;-81
2022/05/25 11:30:45;;;;;;;2.40;2.20;;;;;;;;;;5032275;28;21048;-85
2022/05/25 11:33:22;;;;;;;3.03;2.20;;;;;;;;;;5033690;28;20419;-84
2022/05/25 11:35:52;;;;;;;3.30;2.10;;;;;;;;;;5032315;28;20431;-82
2022/05/25 11:38:27;;;;;;;3.40;2.20;;;;;;;;;;5031798;28;20483;-85
2022/05/25 11:40:56;;;;;;;6.18;2.45;;;;;;;;;;5038206;28;20572;-85
2022/05/25 11:43:40;;;;;;;3.50;2.40;;;;;;;;;;5030425;28;20494;-83
2022/05/25 11:46:10;;;;;;;3.10;2.30;;;;;;;;;;5031559;28;20429;-84
2022/05/25 11:48:45;;;;;;;2.60;2.40;;;;;;;;;;5031884;28;20421;-84
2022/05/25 11:51:19;;;;;;;4.03;2.80;;;;;;;;;;5034048;28;20434;-82
2022/05/25 11:53:50;;;;;;;2.72;2.40;;;;;;;;;;5032748;28;20738;-83
2022/05/25 11:56:23;;;;;;;2.60;2.20;;;;;;;;;;5032248;28;20427;-84
2022/05/25 11:58:57;;;;;;;2.50;2.30;;;;;;;;;;5031697;28;20724;-84
2022/05/25 12:01:29;;;;;;;4.35;2.30;;;;;;;;;;5032759;28;20418;-84
2022/05/25 12:04:05;;;;;;;2.88;2.50;;;;;;;;;;5032204;28;20418;-85
2022/05/25 12:06:47;;;;;;;3.58;2.90;;;;;;;;;;5034103;28;20906;-83
2022/05/25 12:09:18;;;;;;;2.33;2.22;;;;;;;;;;5035937;28;20423;-83
2022/05/25 12:11:48;;;;;;;4.05;2.10;;;;;;;;;;5037175;28;20431;-82
2022/05/25 12:14:24;;;;;;;3.80;3.50;;;;;;;;;;5033211;28;20407;-85
2022/05/25 12:16:52;;;;;;;3.50;3.20;;;;;;;;;;5034166;28;20434;-82
2022/05/25 12:19:22;;;;;;;3.00;2.70;;;;;;;;;;5033808;28;20419;-85
2022/05/25 12:21:50;;;;;;;3.10;2.40;;;;;;;;;;5034054;28;20422;-84
2022/05/25 12:24:18;;;;;;;2.67;2.20;;;;;;;;;;5030071;28;20431;-84
2022/05/25 12:26:45;;;;;;;2.72;2.20;;;;;;;;;;5033105;28;20849;-83
2022/05/25 12:29:15;;;;;;;2.23;2.03;;;;;;;;;;5034075;28;20473;-86
2022/05/25 12:31:42;;;;;;;2.90;2.45;;;;;;;;;;5032574;28;20436;-84
2022/05/25 12:34:10;;;;;;;2.40;2.20;;;;;;;;;;5033080;28;20417;-82
2022/05/25 12:36:38;;;;;;;3.40;2.20;;;;;;;;;;5031345;28;21090;-84
2022/05/25 12:39:04;;;;;;;2.10;1.90;;;;;;;;;;5030215;28;20433;-85
2022/05/25 12:41:32;;;;;;;3.20;2.40;;;;;;;;;;5036191;28;21038;-84
2022/05/25 12:44:00;;;;;;;2.58;1.70;;;;;;;;;;5037464;28;20423;-84
2022/05/25 12:49:34;;;;;;;2.40;2.20;;;;;;;;;;5032941;28;20486;-82
2022/05/25 12:52:01;;;;;;;4.97;2.40;;;;;;;;;;5034617;28;20417;-84
2022/05/25 12:54:30;;;;;;;3.10;2.40;;;;;;;;;;5033989;28;20491;-84
2022/05/25 12:56:57;;;;;;;3.40;2.40;;;;;;;;;;5035129;28;20427;-84
2022/05/25 12:59:29;;;;;;;2.90;2.00;;;;;;;;;;5038571;28;20844;-84
2022/05/25 13:02:13;;;;;;;3.22;2.38;;;;;;;;;;5034812;28;20431;-84
2022/05/25 13:04:44;;;;;;;2.60;2.10;;;;;;;;;;5050737;23;20451;-81
2022/05/25 13:07:25;;;;;;;3.17;2.20;;;;;;;;;;5025154;28;21014;-79
2022/05/25 13:09:52;;;;;;;2.10;2.00;;;;;;;;;;5010706;28;20490;-80
2022/05/25 13:12:38;;;;;;;2.60;2.00;;;;;;;;;;5025215;28;20427;-82
2022/05/25 13:15:05;;;;;;;2.28;2.00;;;;;;;;;;5025809;28;20431;-83
2022/05/25 13:17:41;;;;;;;2.07;1.80;;;;;;;;;;5025562;28;20486;-80
2022/05/25 13:20:07;;;;;;;2.72;2.00;;;;;;;;;;5025600;28;20422;-81
2022/05/25 13:22:34;;;;;;;5.38;1.90;;;;;;;;;;5024900;28;20443;-81
2022/05/25 13:25:09;;;;;;;2.97;1.70;;;;;;;;;;5024397;28;20427;-81
2022/05/25 13:27:53;;;;;;;2.30;1.60;;;;;;;;;;5023981;28;20415;-80
2022/05/25 13:30:23;;;;;;;4.20;2.30;;;;;;;;;;5024676;28;20895;-81
2022/05/25 13:32:51;;;;;;;2.53;2.25;;;;;;;;;;5024767;28;20511;-82
2022/05/25 13:35:32;;;;;;;3.10;2.90;;;;;;;;;;5024440;28;20430;-83
2022/05/25 13:38:01;;;;;;;4.20;3.00;;;;;;;;;;5023284;28;20809;-81
2022/05/25 13:40:31;;;;;;;4.05;3.50;;;;;;;;;;5025074;28;20436;-82
2022/05/25 13:42:59;;;;;;;5.05;3.20;;;;;;;;;;5026136;28;20449;-83
2022/05/25 13:45:26;;;;;;;4.80;4.05;;;;;;;;;;5024442;28;20438;-80
2022/05/25 13:47:53;;;;;;;4.43;4.03;;;;;;;;;;5025638;28;20438;-81
2022/05/25 13:50:30;;;;;;;3.53;3.22;;;;;;;;;;5024337;28;20422;-81
2022/05/25 13:52:56;;;;;;;3.97;3.58;;;;;;;;;;5024632;28;20419;-81
2022/05/25 13:55:26;;;;;;;3.20;2.90;;;;;;;;;;5023617;28;20432;-79
2022/05/25 13:57:59;;;;;;;3.80;2.80;;;;;;;;;;5021650;28;20427;-77
2022/05/25 14:00:32;;;;;;;2.80;2.60;;;;;;;;;;5024802;28;20435;-81
2022/05/25 14:03:00;;;;;;;2.90;2.50;;;;;;;;;;5023549;28;20429;-81
2022/05/25 14:05:28;;;;;;;4.43;3.20;;;;;;;;;;5021566;28;20498;-80
2022/05/25 14:08:04;;;;;;;2.50;2.40;;;;;;;;;;5022451;28;20819;-79
2022/05/25 14:13:27;;;;;;;2.00;1.90;;;;;;;;;;4995719;28;20825;-82
2022/05/25 14:16:01;;;;;;;2.17;1.98;;;;;;;;;;5022221;28;20419;-80
2022/05/25 14:18:28;;;;;;;2.70;1.80;;;;;;;;;;5020214;28;21151;-79
2022/05/25 14:20:55;;;;;;;2.40;2.20;;;;;;;;;;5021854;28;20519;-81
2022/05/25 14:23:25;;;;;;;3.17;2.00;;;;;;;;;;5021393;28;20454;-80
2022/05/25 14:25:56;;;;;;;3.90;2.40;;;;;;;;;;5022818;28;20427;-79
2022/05/25 14:28:28;;;;;;;3.30;2.30;;;;;;;;;;5019096;28;20425;-81
2022/05/25 14:30:55;;;;;;;3.28;2.55;;;;;;;;;;5021132;28;20436;-81
2022/05/25 14:33:22;;;;;;;2.35;2.15;;;;;;;;;;5021028;28;21293;-79
2022/05/25 14:35:50;;;;;;;4.55;2.70;;;;;;;;;;5022155;28;20427;-81
2022/05/25 14:38:16;;;;;;;3.30;2.55;;;;;;;;;;5019992;28;20421;-80
2022/05/25 14:40:47;;;;;;;2.60;2.40;;;;;;;;;;5022110;28;20518;-81
2022/05/25 14:43:14;;;;;;;3.40;2.70;;;;;;;;;;5020110;28;20422;-82
2022/05/25 14:45:41;;;;;;;3.20;2.90;;;;;;;;;;5020643;28;20450;-80
2022/05/25 14:48:09;;;;;;;3.92;3.53;;;;;;;;;;5020942;28;20493;-81
2022/05/25 14:50:37;;;;;;;4.03;3.22;;;;;;;;;;5022133;28;20507;-80
2022/05/25 14:53:04;;;;;;;3.50;3.20;;;;;;;;;;5019504;28;20442;-80
2022/05/25 14:55:32;;;;;;;4.30;3.90;;;;;;;;;;5019646;28;20439;-79
2022/05/25 14:58:09;;;;;;;3.88;3.58;;;;;;;;;;5021552;28;20473;-81
2022/05/25 15:00:39;;;;;;;4.32;4.03;;;;;;;;;;5019969;28;20442;-79
2022/05/25 15:03:07;;;;;;;4.20;3.90;;;;;;;;;;5020285;28;20909;-80
2022/05/25 15:05:47;;;;;;;4.72;4.32;;;;;;;;;;5020798;28;20473;-79
2022/05/25 15:08:21;;;;;;;5.47;4.90;;;;;;;;;;5019788;28;20411;-81
2022/05/25 15:10:47;;;;;;;4.60;4.30;;;;;;;;;;5019489;28;20504;-80
2022/05/25 15:13:23;;;;;;;5.10;4.70;;;;;;;;;;5019109;28;20467;-81
2022/05/25 15:18:36;;;;;;;5.28;4.78;;;;;;;;;;5017433;28;20984;-80